sensor_id;sensor_type;location;lat;lon;timestamp;pressure;altitude;pressure_sealevel;temperature;humidity
1077;BME280;64114;48.726;9.370;2022-11-06T00:00:29;99191.59;;;6.99;100.00
1077;BME280;64114;48.726;9.370;2022-11-06T00:02:57;99210.66;;;7.13;100.00
1077;BME280;64114;48.726;9.370;2022-11-06T00:05:26;99206.47;;;7.15;100.00
1077;BME280;64114;48.726;9.370;2022-11-06T00:08:11;99048.28;;;6.15;100.00
1077;BME280;64114;48.726;9.370;2022-11-06T00:10:41;99210.28;;;6.99;100.00
1077;BME280;64114;48.726;9.370;2022-11-06T00:13:08;99206.16;;;7.05;100.00
1077;BME280;64114;48.726;9.370;2022-11-06T00:15:38;99199.25;;;7.00;100.00
1077;BME280;64114;48.726;9.370;2022-11-06T00:18:06;99194.41;;;7.10;100.00
1077;BME280;64114;48.726;9.370;2022-11-06T00:20:35;99151.06;;;6.78;100.00
1077;BME280;64114;48.726;9.370;2022-11-06T00:23:03;99191.84;;;7.10;100.00
1077;BME280;64114;48.726;9.370;2022-11-06T00:25:31;99191.00;;;7.09;100.00
1077;BME280;64114;48.726;9.370;2022-11-06T00:27:59;99187.16;;;7.24;100.00
1077;BME280;64114;48.726;9.370;2022-11-06T00:30:27;99165.94;;;7.26;100.00
1077;BME280;64114;48.726;9.370;2022-11-06T00:32:57;99169.91;;;7.15;100.00
1077;BME280;64114;48.726;9.370;2022-11-06T00:35:25;99180.09;;;7.15;100.00
1077;BME280;64114;48.726;9.370;2022-11-06T00:37:53;99181.72;;;7.11;100.00
1077;BME280;64114;48.726;9.370;2022-11-06T00:40:21;99177.88;;;6.95;100.00
1077;BME280;64114;48.726;9.370;2022-11-06T00:42:53;99159.25;;;6.66;100.00
1077;BME280;64114;48.726;9.370;2022-11-06T00:45:22;99192.16;;;6.89;100.00
1077;BME280;64114;48.726;9.370;2022-11-06T00:47:50;99176.47;;;6.75;100.00
1077;BME280;64114;48.726;9.370;2022-11-06T00:50:19;99197.63;;;7.03;100.00
1077;BME280;64114;48.726;9.370;2022-11-06T00:52:51;99194.44;;;6.79;100.00
1077;BME280;64114;48.726;9.370;2022-11-06T00:55:20;99193.13;;;6.94;100.00
1077;BME280;64114;48.726;9.370;2022-11-06T00:57:49;99195.97;;;7.05;100.00
1077;BME280;64114;48.726;9.370;2022-11-06T01:00:17;99130.88;;;6.53;100.00
1077;BME280;64114;48.726;9.370;2022-11-06T01:02:46;99171.91;;;6.64;100.00
1077;BME280;64114;48.726;9.370;2022-11-06T01:05:15;99121.63;;;6.57;100.00
1077;BME280;64114;48.726;9.370;2022-11-06T01:07:45;99199.16;;;6.97;100.00
1077;BME280;64114;48.726;9.370;2022-11-06T01:10:13;99199.47;;;6.78;100.00
1077;BME280;64114;48.726;9.370;2022-11-06T01:12:43;99201.00;;;6.71;100.00
1077;BME280;64114;48.726;9.370;2022-11-06T01:15:10;99189.91;;;6.69;100.00
1077;BME280;64114;48.726;9.370;2022-11-06T01:17:39;99190.56;;;6.63;100.00
1077;BME280;64114;48.726;9.370;2022-11-06T01:20:08;99134.19;;;6.51;100.00
1077;BME280;64114;48.726;9.370;2022-11-06T01:22:36;99183.38;;;6.50;100.00
1077;BME280;64114;48.726;9.370;2022-11-06T01:25:07;99190.75;;;6.40;100.00
1077;BME280;64114;48.726;9.370;2022-11-06T01:27:35;99188.03;;;6.34;100.00
1077;BME280;64114;48.726;9.370;2022-11-06T01:30:04;99130.94;;;5.97;100.00
1077;BME280;64114;48.726;9.370;2022-11-06T01:32:33;99191.34;;;6.04;100.00
1077;BME280;64114;48.726;9.370;2022-11-06T01:35:01;99188.28;;;6.15;100.00
1077;BME280;64114;48.726;9.370;2022-11-06T01:37:29;99188.53;;;6.22;100.00
1077;BME280;64114;48.726;9.370;2022-11-06T01:39:57;99189.66;;;6.32;100.00
1077;BME280;64114;48.726;9.370;2022-11-06T01:42:26;99162.47;;;5.75;100.00
1077;BME280;64114;48.726;9.370;2022-11-06T01:45:23;99190.63;;;6.08;100.00
1077;BME280;64114;48.726;9.370;2022-11-06T01:47:52;99203.28;;;6.05;100.00
1077;BME280;64114;48.726;9.370;2022-11-06T01:50:21;99197.56;;;6.12;100.00
1077;BME280;64114;48.726;9.370;2022-11-06T01:52:49;99197.53;;;6.11;100.00
1077;BME280;64114;48.726;9.370;2022-11-06T01:55:21;99193.34;;;6.13;100.00
1077;BME280;64114;48.726;9.370;2022-11-06T01:57:53;99191.84;;;6.20;100.00
1077;BME280;64114;48.726;9.370;2022-11-06T02:00:22;99198.13;;;6.31;100.00
1077;BME280;64114;48.726;9.370;2022-11-06T02:02:52;99197.03;;;6.23;100.00
1077;BME280;64114;48.726;9.370;2022-11-06T02:05:20;99203.63;;;6.16;100.00
1077;BME280;64114;48.726;9.370;2022-11-06T02:07:49;99194.84;;;6.35;100.00
1077;BME280;64114;48.726;9.370;2022-11-06T02:10:19;99192.47;;;6.41;100.00
1077;BME280;64114;48.726;9.370;2022-11-06T02:12:57;99152.56;;;6.11;100.00
1077;BME280;64114;48.726;9.370;2022-11-06T02:15:34;99190.72;;;6.39;100.00
1077;BME280;64114;48.726;9.370;2022-11-06T02:18:17;99180.34;;;6.33;100.00
1077;BME280;64114;48.726;9.370;2022-11-06T02:21:03;99174.81;;;6.77;100.00
1077;BME280;64114;48.726;9.370;2022-11-06T02:23:52;99174.91;;;6.49;100.00
1077;BME280;64114;48.726;9.370;2022-11-06T02:26:42;99175.81;;;6.51;100.00
1077;BME280;64114;48.726;9.370;2022-11-06T02:29:15;99168.81;;;6.44;100.00
1077;BME280;64114;48.726;9.370;2022-11-06T02:31:44;99179.94;;;6.48;100.00
1077;BME280;64114;48.726;9.370;2022-11-06T02:34:15;99172.47;;;6.54;100.00
1077;BME280;64114;48.726;9.370;2022-11-06T02:36:50;99177.47;;;6.51;100.00
1077;BME280;64114;48.726;9.370;2022-11-06T02:39:21;99174.91;;;6.49;100.00
1077;BME280;64114;48.726;9.370;2022-11-06T02:41:54;99165.66;;;6.53;100.00
1077;BME280;64114;48.726;9.370;2022-11-06T02:44:26;99151.78;;;6.74;100.00
1077;BME280;64114;48.726;9.370;2022-11-06T02:46:58;99159.44;;;7.04;100.00
1077;BME280;64114;48.726;9.370;2022-11-06T02:49:31;99156.81;;;6.41;100.00
1077;BME280;64114;48.726;9.370;2022-11-06T02:52:07;99150.00;;;6.11;100.00
1077;BME280;64114;48.726;9.370;2022-11-06T02:54:40;99092.03;;;5.74;100.00
1077;BME280;64114;48.726;9.370;2022-11-06T02:57:12;99154.34;;;6.14;100.00
1077;BME280;64114;48.726;9.370;2022-11-06T02:59:45;99122.00;;;5.82;100.00
1077;BME280;64114;48.726;9.370;2022-11-06T03:02:18;99134.97;;;5.90;100.00
1077;BME280;64114;48.726;9.370;2022-11-06T03:04:52;99116.81;;;5.79;100.00
1077;BME280;64114;48.726;9.370;2022-11-06T03:07:26;99112.34;;;6.00;100.00
1077;BME280;64114;48.726;9.370;2022-11-06T03:09:55;99113.22;;;6.61;100.00
1077;BME280;64114;48.726;9.370;2022-11-06T03:12:29;99093.41;;;6.49;100.00
1077;BME280;64114;48.726;9.370;2022-11-06T03:15:01;99120.63;;;6.23;100.00
1077;BME280;64114;48.726;9.370;2022-11-06T03:17:38;99117.97;;;6.18;100.00
1077;BME280;64114;48.726;9.370;2022-11-06T03:20:19;99103.22;;;5.79;100.00
1077;BME280;64114;48.726;9.370;2022-11-06T03:22:53;99098.84;;;5.75;100.00
1077;BME280;64114;48.726;9.370;2022-11-06T03:25:25;99105.53;;;6.00;100.00
1077;BME280;64114;48.726;9.370;2022-11-06T03:28:00;99110.00;;;5.78;100.00
1077;BME280;64114;48.726;9.370;2022-11-06T03:30:31;99105.53;;;5.71;100.00
1077;BME280;64114;48.726;9.370;2022-11-06T03:33:06;99106.47;;;5.73;100.00
1077;BME280;64114;48.726;9.370;2022-11-06T03:35:40;99068.75;;;5.89;100.00
1077;BME280;64114;48.726;9.370;2022-11-06T03:38:13;99045.44;;;5.75;100.00
1077;BME280;64114;48.726;9.370;2022-11-06T03:40:46;99116.78;;;6.07;100.00
1077;BME280;64114;48.726;9.370;2022-11-06T03:43:20;99101.84;;;5.89;100.00
1077;BME280;64114;48.726;9.370;2022-11-06T03:45:51;99103.22;;;5.79;100.00
1077;BME280;64114;48.726;9.370;2022-11-06T03:48:24;99110.06;;;5.52;100.00
1077;BME280;64114;48.726;9.370;2022-11-06T03:50:59;99086.56;;;5.61;100.00
1077;BME280;64114;48.726;9.370;2022-11-06T03:53:33;99056.09;;;5.35;100.00
1077;BME280;64114;48.726;9.370;2022-11-06T03:56:07;99092.75;;;5.97;100.00
1077;BME280;64114;48.726;9.370;2022-11-06T03:58:39;99090.00;;;6.20;100.00
1077;BME280;64114;48.726;9.370;2022-11-06T04:01:11;99082.75;;;5.74;100.00
1077;BME280;64114;48.726;9.370;2022-11-06T04:03:43;99082.66;;;5.71;100.00
1077;BME280;64114;48.726;9.370;2022-11-06T04:06:16;99072.84;;;5.83;100.00
1077;BME280;64114;48.726;9.370;2022-11-06T04:08:47;99072.88;;;5.85;100.00
1077;BME280;64114;48.726;9.370;2022-11-06T04:11:37;99085.44;;;6.08;100.00
1077;BME280;64114;48.726;9.370;2022-11-06T04:14:26;99091.81;;;5.66;100.00
1077;BME280;64114;48.726;9.370;2022-11-06T04:16:59;99077.03;;;5.54;100.00
1077;BME280;64114;48.726;9.370;2022-11-06T04:19:28;99070.25;;;5.27;100.00
1077;BME280;64114;48.726;9.370;2022-11-06T04:22:11;99069.75;;;5.65;100.00
1077;BME280;64114;48.726;9.370;2022-11-06T04:24:53;99070.31;;;5.29;100.00
1077;BME280;64114;48.726;9.370;2022-11-06T04:27:50;99054.09;;;5.52;100.00
1077;BME280;64114;48.726;9.370;2022-11-06T04:30:22;99045.16;;;5.65;100.00
1077;BME280;64114;48.726;9.370;2022-11-06T04:33:00;99040.69;;;5.86;100.00
1077;BME280;64114;48.726;9.370;2022-11-06T04:35:38;99048.88;;;5.77;100.00
1077;BME280;64114;48.726;9.370;2022-11-06T04:38:13;99028.31;;;5.69;100.00
1077;BME280;64114;48.726;9.370;2022-11-06T04:40:51;99041.69;;;5.91;100.00
1077;BME280;64114;48.726;9.370;2022-11-06T04:43:24;98991.78;;;5.11;100.00
1077;BME280;64114;48.726;9.370;2022-11-06T04:45:59;99027.19;;;5.32;100.00
1077;BME280;64114;48.726;9.370;2022-11-06T04:48:29;99021.56;;;5.15;100.00
1077;BME280;64114;48.726;9.370;2022-11-06T04:51:00;99023.53;;;5.23;100.00
1077;BME280;64114;48.726;9.370;2022-11-06T04:53:30;98987.50;;;5.09;100.00
1077;BME280;64114;48.726;9.370;2022-11-06T04:56:05;98989.00;;;5.03;100.00
1077;BME280;64114;48.726;9.370;2022-11-06T04:58:33;99007.84;;;5.09;100.00
1077;BME280;64114;48.726;9.370;2022-11-06T05:01:03;99012.81;;;4.80;100.00
1077;BME280;64114;48.726;9.370;2022-11-06T05:03:31;99010.28;;;4.80;100.00
1077;BME280;64114;48.726;9.370;2022-11-06T05:05:59;99009.69;;;4.88;100.00
1077;BME280;64114;48.726;9.370;2022-11-06T05:08:28;98995.63;;;4.98;100.00
1077;BME280;64114;48.726;9.370;2022-11-06T05:10:57;98913.72;;;4.52;100.00
1077;BME280;64114;48.726;9.370;2022-11-06T05:13:25;99002.16;;;4.91;100.00
1077;BME280;64114;48.726;9.370;2022-11-06T05:15:54;99006.06;;;5.07;100.00
1077;BME280;64114;48.726;9.370;2022-11-06T05:18:25;99010.94;;;5.27;100.00
1077;BME280;64114;48.726;9.370;2022-11-06T05:20:53;98971.56;;;4.88;100.00
1077;BME280;64114;48.726;9.370;2022-11-06T05:23:36;99038.84;;;5.52;100.00
1077;BME280;64114;48.726;9.370;2022-11-06T05:26:06;99027.19;;;5.32;100.00
1077;BME280;64114;48.726;9.370;2022-11-06T05:28:34;99039.84;;;5.30;100.00
1077;BME280;64114;48.726;9.370;2022-11-06T05:31:03;99032.63;;;4.39;100.00
1077;BME280;64114;48.726;9.370;2022-11-06T05:33:32;99031.41;;;4.29;100.00
1077;BME280;64114;48.726;9.370;2022-11-06T05:36:01;99050.38;;;4.39;100.00
1077;BME280;64114;48.726;9.370;2022-11-06T05:38:30;99033.47;;;4.40;100.00
1077;BME280;64114;48.726;9.370;2022-11-06T05:40:59;99046.72;;;4.81;100.00
1077;BME280;64114;48.726;9.370;2022-11-06T05:43:26;99049.66;;;4.19;100.00
1077;BME280;64114;48.726;9.370;2022-11-06T05:45:54;99055.00;;;4.51;100.00
1077;BME280;64114;48.726;9.370;2022-11-06T05:48:23;99040.00;;;4.33;100.00
1077;BME280;64114;48.726;9.370;2022-11-06T05:50:52;99052.97;;;4.65;100.00
1077;BME280;64114;48.726;9.370;2022-11-06T05:53:20;99035.97;;;4.88;100.00
1077;BME280;64114;48.726;9.370;2022-11-06T05:55:47;99020.84;;;4.93;100.00
1077;BME280;64114;48.726;9.370;2022-11-06T05:58:15;99002.56;;;5.03;100.00
1077;BME280;64114;48.726;9.370;2022-11-06T06:00:43;99022.78;;;5.00;100.00
1077;BME280;64114;48.726;9.370;2022-11-06T06:03:11;99022.03;;;5.30;100.00
1077;BME280;64114;48.726;9.370;2022-11-06T06:05:39;99022.50;;;5.44;100.00
1077;BME280;64114;48.726;9.370;2022-11-06T06:08:08;99032.75;;;4.94;100.00
1077;BME280;64114;48.726;9.370;2022-11-06T06:10:39;99045.75;;;4.52;100.00
1077;BME280;64114;48.726;9.370;2022-11-06T06:13:07;99052.88;;;4.15;100.00
1077;BME280;64114;48.726;9.370;2022-11-06T06:15:36;99038.63;;;4.41;100.00
1077;BME280;64114;48.726;9.370;2022-11-06T06:18:05;99002.34;;;4.21;100.00
1077;BME280;64114;48.726;9.370;2022-11-06T06:20:33;99033.75;;;4.73;100.00
1077;BME280;64114;48.726;9.370;2022-11-06T06:23:02;98979.25;;;4.38;100.00
1077;BME280;64114;48.726;9.370;2022-11-06T06:25:36;99036.66;;;4.84;100.00
1077;BME280;64114;48.726;9.370;2022-11-06T06:28:03;99034.53;;;4.71;100.00
1077;BME280;64114;48.726;9.370;2022-11-06T06:30:31;99009.03;;;4.68;100.00
1077;BME280;64114;48.726;9.370;2022-11-06T06:33:03;99055.47;;;4.89;100.00
1077;BME280;64114;48.726;9.370;2022-11-06T06:35:32;98966.81;;;4.21;100.00
1077;BME280;64114;48.726;9.370;2022-11-06T06:38:00;99044.31;;;4.86;100.00
1077;BME280;64114;48.726;9.370;2022-11-06T06:40:27;99019.84;;;4.62;100.00
1077;BME280;64114;48.726;9.370;2022-11-06T06:42:58;99011.34;;;4.61;100.00
1077;BME280;64114;48.726;9.370;2022-11-06T06:45:26;99009.22;;;4.74;100.00
1077;BME280;64114;48.726;9.370;2022-11-06T06:47:54;99015.13;;;4.73;100.00
1077;BME280;64114;48.726;9.370;2022-11-06T06:50:21;98970.38;;;4.50;100.00
1077;BME280;64114;48.726;9.370;2022-11-06T06:52:54;99045.63;;;4.74;100.00
1077;BME280;64114;48.726;9.370;2022-11-06T06:55:23;98972.75;;;4.46;100.00
1077;BME280;64114;48.726;9.370;2022-11-06T06:57:55;98993.44;;;4.57;100.00
1077;BME280;64114;48.726;9.370;2022-11-06T07:00:25;99033.31;;;5.11;100.00
1077;BME280;64114;48.726;9.370;2022-11-06T07:02:53;99011.16;;;5.07;100.00
1077;BME280;64114;48.726;9.370;2022-11-06T07:05:21;99022.19;;;4.82;100.00
1077;BME280;64114;48.726;9.370;2022-11-06T07:07:49;99025.78;;;4.62;100.00
1077;BME280;64114;48.726;9.370;2022-11-06T07:10:17;99020.28;;;5.28;100.00
1077;BME280;64114;48.726;9.370;2022-11-06T07:12:45;99017.50;;;5.47;100.00
1077;BME280;64114;48.726;9.370;2022-11-06T07:15:13;99009.09;;;5.22;100.00
1077;BME280;64114;48.726;9.370;2022-11-06T07:17:42;98994.03;;;5.01;100.00
1077;BME280;64114;48.726;9.370;2022-11-06T07:20:10;98993.47;;;5.10;100.00
1077;BME280;64114;48.726;9.370;2022-11-06T07:22:38;98994.34;;;5.39;100.00
1077;BME280;64114;48.726;9.370;2022-11-06T07:25:06;98929.59;;;5.27;100.00
1077;BME280;64114;48.726;9.370;2022-11-06T07:27:34;98984.56;;;5.52;100.00
1077;BME280;64114;48.726;9.370;2022-11-06T07:30:02;98979.25;;;5.44;100.00
1077;BME280;64114;48.726;9.370;2022-11-06T07:32:30;98981.09;;;5.48;100.00
1077;BME280;64114;48.726;9.370;2022-11-06T07:34:59;98971.75;;;5.78;100.00
1077;BME280;64114;48.726;9.370;2022-11-06T07:37:27;98962.09;;;5.66;100.00
1077;BME280;64114;48.726;9.370;2022-11-06T07:39:54;98942.97;;;5.50;100.00
1077;BME280;64114;48.726;9.370;2022-11-06T07:42:22;98954.72;;;5.75;100.00
1077;BME280;64114;48.726;9.370;2022-11-06T07:44:57;98955.38;;;5.98;100.00
1077;BME280;64114;48.726;9.370;2022-11-06T07:47:25;98941.53;;;6.21;100.00
1077;BME280;64114;48.726;9.370;2022-11-06T07:49:56;98896.13;;;5.72;100.00
1077;BME280;64114;48.726;9.370;2022-11-06T07:52:25;98931.66;;;6.01;100.00
1077;BME280;64114;48.726;9.370;2022-11-06T07:54:53;98899.03;;;5.86;100.00
1077;BME280;64114;48.726;9.370;2022-11-06T07:57:21;98925.03;;;6.06;100.00
1077;BME280;64114;48.726;9.370;2022-11-06T07:59:49;98881.38;;;5.91;100.00
1077;BME280;64114;48.726;9.370;2022-11-06T08:02:16;98907.19;;;6.05;100.00
1077;BME280;64114;48.726;9.370;2022-11-06T08:04:44;98880.44;;;6.21;100.00
1077;BME280;64114;48.726;9.370;2022-11-06T08:07:12;98890.03;;;6.31;100.00
1077;BME280;64114;48.726;9.370;2022-11-06T08:09:41;98875.94;;;6.44;100.00
1077;BME280;64114;48.726;9.370;2022-11-06T08:12:09;98854.81;;;6.48;100.00
1077;BME280;64114;48.726;9.370;2022-11-06T08:14:40;98861.78;;;6.57;100.00
1077;BME280;64114;48.726;9.370;2022-11-06T08:17:08;98848.09;;;6.52;100.00
1077;BME280;64114;48.726;9.370;2022-11-06T08:19:36;98827.25;;;6.32;100.00
1077;BME280;64114;48.726;9.370;2022-11-06T08:22:04;98854.28;;;6.63;100.00
1077;BME280;64114;48.726;9.370;2022-11-06T08:24:31;98860.22;;;6.27;100.00
1077;BME280;64114;48.726;9.370;2022-11-06T08:27:01;98820.75;;;6.09;100.00
1077;BME280;64114;48.726;9.370;2022-11-06T08:29:29;98845.44;;;6.12;100.00
1077;BME280;64114;48.726;9.370;2022-11-06T08:32:04;98831.50;;;6.33;100.00
1077;BME280;64114;48.726;9.370;2022-11-06T08:34:33;98837.13;;;6.19;100.00
1077;BME280;64114;48.726;9.370;2022-11-06T08:37:01;98733.38;;;5.42;100.00
1077;BME280;64114;48.726;9.370;2022-11-06T08:39:29;98838.41;;;6.03;100.00
1077;BME280;64114;48.726;9.370;2022-11-06T08:41:58;98784.00;;;4.73;100.00
1077;BME280;64114;48.726;9.370;2022-11-06T08:44:27;98846.78;;;5.06;100.00
1077;BME280;64114;48.726;9.370;2022-11-06T08:46:56;98848.44;;;4.76;100.00
1077;BME280;64114;48.726;9.370;2022-11-06T08:49:23;98850.44;;;4.87;100.00
1077;BME280;64114;48.726;9.370;2022-11-06T08:51:51;98854.25;;;5.00;100.00
1077;BME280;64114;48.726;9.370;2022-11-06T08:54:20;98844.34;;;5.09;100.00
1077;BME280;64114;48.726;9.370;2022-11-06T08:56:48;98693.03;;;4.59;100.00
1077;BME280;64114;48.726;9.370;2022-11-06T08:59:16;98807.13;;;4.82;100.00
1077;BME280;64114;48.726;9.370;2022-11-06T09:01:46;98842.19;;;4.65;100.00
1077;BME280;64114;48.726;9.370;2022-11-06T09:04:14;98780.91;;;4.54;100.00
1077;BME280;64114;48.726;9.370;2022-11-06T09:06:42;98806.53;;;4.91;100.00
1077;BME280;64114;48.726;9.370;2022-11-06T09:09:11;98843.72;;;5.47;100.00
1077;BME280;64114;48.726;9.370;2022-11-06T09:11:39;98821.56;;;5.75;100.00
1077;BME280;64114;48.726;9.370;2022-11-06T09:14:07;98827.69;;;5.81;100.00
1077;BME280;64114;48.726;9.370;2022-11-06T09:16:36;98843.13;;;6.23;100.00
1077;BME280;64114;48.726;9.370;2022-11-06T09:19:05;98841.41;;;6.20;100.00
1077;BME280;64114;48.726;9.370;2022-11-06T09:21:33;98837.00;;;6.50;100.00
1077;BME280;64114;48.726;9.370;2022-11-06T09:24:02;98819.56;;;6.67;100.00
1077;BME280;64114;48.726;9.370;2022-11-06T09:26:30;98827.44;;;6.76;100.00
1077;BME280;64114;48.726;9.370;2022-11-06T09:28:58;98782.81;;;6.57;100.00
1077;BME280;64114;48.726;9.370;2022-11-06T09:31:26;98830.16;;;6.47;100.00
1077;BME280;64114;48.726;9.370;2022-11-06T09:33:54;98830.00;;;6.78;100.00
1077;BME280;64114;48.726;9.370;2022-11-06T09:36:24;98828.53;;;6.89;100.00
1077;BME280;64114;48.726;9.370;2022-11-06T09:38:52;98812.34;;;6.85;100.00
1077;BME280;64114;48.726;9.370;2022-11-06T09:41:28;98814.97;;;6.90;100.00
1077;BME280;64114;48.726;9.370;2022-11-06T09:44:09;98842.44;;;7.04;100.00
1077;BME280;64114;48.726;9.370;2022-11-06T09:46:45;98850.56;;;6.85;100.00
1077;BME280;64114;48.726;9.370;2022-11-06T09:49:18;98783.78;;;6.61;100.00
1077;BME280;64114;48.726;9.370;2022-11-06T09:51:54;98847.16;;;7.25;100.00
1077;BME280;64114;48.726;9.370;2022-11-06T09:54:27;98827.59;;;7.24;100.00
1077;BME280;64114;48.726;9.370;2022-11-06T09:57:01;98833.50;;;7.66;100.00
1077;BME280;64114;48.726;9.370;2022-11-06T09:59:34;98807.66;;;7.49;100.00
1077;BME280;64114;48.726;9.370;2022-11-06T10:02:18;98798.88;;;8.28;100.00
1077;BME280;64114;48.726;9.370;2022-11-06T10:04:53;98810.09;;;8.38;99.45
1077;BME280;64114;48.726;9.370;2022-11-06T10:07:26;98818.72;;;8.44;99.20
1077;BME280;64114;48.726;9.370;2022-11-06T10:09:56;98804.72;;;8.22;100.00
1077;BME280;64114;48.726;9.370;2022-11-06T10:12:32;98786.13;;;8.29;99.71
1077;BME280;64114;48.726;9.370;2022-11-06T10:15:11;98796.16;;;8.74;98.32
1077;BME280;64114;48.726;9.370;2022-11-06T10:17:51;98793.25;;;9.14;95.37
1077;BME280;64114;48.726;9.370;2022-11-06T10:20:26;98771.09;;;9.16;94.45
1077;BME280;64114;48.726;9.370;2022-11-06T10:23:04;98784.19;;;9.41;93.39
1077;BME280;64114;48.726;9.370;2022-11-06T10:25:44;98774.22;;;9.64;92.46
1077;BME280;64114;48.726;9.370;2022-11-06T10:28:24;98764.09;;;9.76;92.20
1077;BME280;64114;48.726;9.370;2022-11-06T10:31:02;98760.00;;;9.94;91.02
1077;BME280;64114;48.726;9.370;2022-11-06T10:33:42;98704.41;;;9.85;89.56
1077;BME280;64114;48.726;9.370;2022-11-06T10:36:17;98742.38;;;10.39;89.19
1077;BME280;64114;48.726;9.370;2022-11-06T10:38:49;98730.31;;;10.27;88.62
1077;BME280;64114;48.726;9.370;2022-11-06T10:41:21;98719.25;;;10.27;89.75
1077;BME280;64114;48.726;9.370;2022-11-06T10:43:53;98710.06;;;10.57;88.09
1077;BME280;64114;48.726;9.370;2022-11-06T10:46:28;98698.09;;;10.59;88.04
1077;BME280;64114;48.726;9.370;2022-11-06T10:48:58;98681.09;;;10.78;87.32
1077;BME280;64114;48.726;9.370;2022-11-06T10:51:34;98693.09;;;10.87;87.81
1077;BME280;64114;48.726;9.370;2022-11-06T10:54:18;98691.47;;;11.12;86.00
1077;BME280;64114;48.726;9.370;2022-11-06T10:57:03;98664.97;;;11.16;86.21
1077;BME280;64114;48.726;9.370;2022-11-06T10:59:43;98676.97;;;11.39;85.29
1077;BME280;64114;48.726;9.370;2022-11-06T11:02:22;98645.31;;;11.13;85.87
1077;BME280;64114;48.726;9.370;2022-11-06T11:04:51;98662.44;;;11.41;85.29
1077;BME280;64114;48.726;9.370;2022-11-06T11:07:24;98650.47;;;11.43;85.30
1077;BME280;64114;48.726;9.370;2022-11-06T11:09:54;98645.31;;;11.54;84.43
1077;BME280;64114;48.726;9.370;2022-11-06T11:12:25;98609.38;;;11.35;84.19
1077;BME280;64114;48.726;9.370;2022-11-06T11:15:12;98624.81;;;11.43;84.07
1077;BME280;64114;48.726;9.370;2022-11-06T11:17:42;98599.09;;;10.95;84.90
1077;BME280;64114;48.726;9.370;2022-11-06T11:20:32;98616.22;;;11.28;86.40
1077;BME280;64114;48.726;9.370;2022-11-06T11:23:13;98601.69;;;11.43;85.28
1077;BME280;64114;48.726;9.370;2022-11-06T11:25:44;98593.97;;;11.41;85.84
1077;BME280;64114;48.726;9.370;2022-11-06T11:28:21;98550.38;;;11.26;85.08
1077;BME280;64114;48.726;9.370;2022-11-06T11:30:56;98582.00;;;11.61;84.84
1077;BME280;64114;48.726;9.370;2022-11-06T11:33:25;98567.44;;;11.75;84.09
1077;BME280;64114;48.726;9.370;2022-11-06T11:35:55;98575.16;;;11.63;84.99
1077;BME280;64114;48.726;9.370;2022-11-06T11:38:23;98555.44;;;11.79;84.14
1077;BME280;64114;48.726;9.370;2022-11-06T11:41:05;98540.88;;;11.84;84.00
1077;BME280;64114;48.726;9.370;2022-11-06T11:43:34;98546.84;;;11.89;85.02
1077;BME280;64114;48.726;9.370;2022-11-06T11:46:09;98537.38;;;12.11;84.03
1077;BME280;64114;48.726;9.370;2022-11-06T11:48:43;98518.56;;;12.05;82.38
1077;BME280;64114;48.726;9.370;2022-11-06T11:51:19;98512.56;;;12.10;80.73
1077;BME280;64114;48.726;9.370;2022-11-06T11:53:53;98529.59;;;12.30;81.31
1077;BME280;64114;48.726;9.370;2022-11-06T11:56:24;98524.47;;;12.30;76.66
1077;BME280;64114;48.726;9.370;2022-11-06T11:59:16;98508.16;;;12.43;75.22
1077;BME280;64114;48.726;9.370;2022-11-06T12:01:46;98498.69;;;12.49;74.77
1077;BME280;64114;48.726;9.370;2022-11-06T12:04:22;98488.34;;;12.59;75.55
1077;BME280;64114;48.726;9.370;2022-11-06T12:06:54;98462.69;;;12.49;75.24
1077;BME280;64114;48.726;9.370;2022-11-06T12:09:24;98474.47;;;12.79;75.79
1077;BME280;64114;48.726;9.370;2022-11-06T12:11:57;98478.72;;;12.85;73.48
1077;BME280;64114;48.726;9.370;2022-11-06T12:14:35;98458.19;;;12.80;73.01
1077;BME280;64114;48.726;9.370;2022-11-06T12:17:09;98466.72;;;12.84;72.38
1077;BME280;64114;48.726;9.370;2022-11-06T12:19:42;98467.50;;;12.97;71.71
1077;BME280;64114;48.726;9.370;2022-11-06T12:22:16;98434.25;;;12.72;72.20
1077;BME280;64114;48.726;9.370;2022-11-06T12:24:52;98463.19;;;12.99;71.60
1077;BME280;64114;48.726;9.370;2022-11-06T12:27:26;98461.38;;;13.10;71.58
1077;BME280;64114;48.726;9.370;2022-11-06T12:30:01;98440.00;;;13.00;71.46
1077;BME280;64114;48.726;9.370;2022-11-06T12:32:40;98460.47;;;13.14;71.70
1077;BME280;64114;48.726;9.370;2022-11-06T12:35:17;98463.88;;;13.16;70.00
1077;BME280;64114;48.726;9.370;2022-11-06T12:38:04;98455.25;;;13.22;69.68
1077;BME280;64114;48.726;9.370;2022-11-06T12:40:37;98462.09;;;13.23;69.46
1077;BME280;64114;48.726;9.370;2022-11-06T12:43:13;98406.53;;;13.05;70.42
1077;BME280;64114;48.726;9.370;2022-11-06T12:45:56;98454.19;;;13.42;69.79
1077;BME280;64114;48.726;9.370;2022-11-06T12:48:42;98431.94;;;13.38;69.65
1077;BME280;64114;48.726;9.370;2022-11-06T12:51:20;98419.84;;;13.44;69.20
1077;BME280;64114;48.726;9.370;2022-11-06T12:54:01;98430.91;;;13.54;69.67
1077;BME280;64114;48.726;9.370;2022-11-06T12:56:42;98424.91;;;13.54;69.02
1077;BME280;64114;48.726;9.370;2022-11-06T12:59:30;98408.88;;;13.25;68.57
1077;BME280;64114;48.726;9.370;2022-11-06T13:02:13;98403.78;;;13.24;69.49
1077;BME280;64114;48.726;9.370;2022-11-06T13:04:51;98378.09;;;13.17;68.51
1077;BME280;64114;48.726;9.370;2022-11-06T13:07:48;98409.63;;;13.37;69.13
1077;BME280;64114;48.726;9.370;2022-11-06T13:10:29;98368.69;;;13.13;68.88
1077;BME280;64114;48.726;9.370;2022-11-06T13:13:13;98399.38;;;13.33;70.12
1077;BME280;64114;48.726;9.370;2022-11-06T13:15:51;98407.72;;;13.54;69.47
1077;BME280;64114;48.726;9.370;2022-11-06T13:18:26;98407.72;;;13.54;69.26
1077;BME280;64114;48.726;9.370;2022-11-06T13:21:00;98368.41;;;13.41;68.24
1077;BME280;64114;48.726;9.370;2022-11-06T13:23:34;98396.38;;;13.72;68.08
1077;BME280;64114;48.726;9.370;2022-11-06T13:26:09;98396.28;;;13.78;67.88
1077;BME280;64114;48.726;9.370;2022-11-06T13:28:41;98385.22;;;13.69;67.16
1077;BME280;64114;48.726;9.370;2022-11-06T13:31:14;98404.94;;;13.73;67.87
1077;BME280;64114;48.726;9.370;2022-11-06T13:33:46;98378.38;;;13.69;67.07
1077;BME280;64114;48.726;9.370;2022-11-06T13:36:17;98391.31;;;13.63;68.01
1077;BME280;64114;48.726;9.370;2022-11-06T13:38:48;98363.09;;;13.54;68.32